East Lake, Minnesota
Current Conditions -  °F | °C
As of 5:27 PM on Saturday 20 Dec 2014 (Local Time) from KHZX Reporting Station
Overcast Overcast  
Wind Chill: 21°   Ceiling: 700
Heat Index: 30°   Visibility: 7mi
Dew Point: 28°   Wind: 10mph
Humidity: 93%   Direction: 170°S
Pressure: 30.06"   Gusts: 17mph
Location:  46.7232°N, 93.3159°W
Report Text: KHZX 202327Z AUTO 17009G15KT 7SM OVC007 M01/M02 A3006 RMK AO2
Loading
Personal Weather Stations






























Interactive Weather Map New forecast layout! Learn more

10-Day Weather Forecast

Advertisements
Track Severe Weather on mobile